sensor_id;sensor_type;location;lat;lon;timestamp;pressure;altitude;pressure_sealevel;temperature;humidity
61037;BME280;72210;47.076;15.430;2023-12-22T00:00:45;95207.41;;;4.17;100.00
61037;BME280;72210;47.076;15.430;2023-12-22T00:03:12;95172.28;;;4.03;100.00
61037;BME280;72210;47.076;15.430;2023-12-22T00:05:39;95158.41;;;3.93;100.00
61037;BME280;72210;47.076;15.430;2023-12-22T00:08:07;95177.78;;;3.86;100.00
61037;BME280;72210;47.076;15.430;2023-12-22T00:10:34;95165.00;;;3.84;100.00
61037;BME280;72210;47.076;15.430;2023-12-22T00:13:01;95139.47;;;3.81;100.00
61037;BME280;72210;47.076;15.430;2023-12-22T00:15:28;95141.75;;;3.73;100.00
61037;BME280;72210;47.076;15.430;2023-12-22T00:17:57;95137.03;;;3.67;100.00
61037;BME280;72210;47.076;15.430;2023-12-22T00:20:25;95150.22;;;3.62;100.00
61037;BME280;72210;47.076;15.430;2023-12-22T00:22:53;95175.31;;;3.58;100.00
61037;BME280;72210;47.076;15.430;2023-12-22T00:25:20;95187.78;;;3.52;100.00
61037;BME280;72210;47.076;15.430;2023-12-22T00:27:48;95209.06;;;3.41;100.00
61037;BME280;72210;47.076;15.430;2023-12-22T00:30:18;95223.75;;;3.26;100.00
61037;BME280;72210;47.076;15.430;2023-12-22T00:32:45;95227.75;;;3.17;100.00
61037;BME280;72210;47.076;15.430;2023-12-22T00:35:14;95216.31;;;3.09;100.00
61037;BME280;72210;47.076;15.430;2023-12-22T00:37:41;95195.41;;;3.00;100.00
61037;BME280;72210;47.076;15.430;2023-12-22T00:40:10;95165.34;;;3.01;100.00
61037;BME280;72210;47.076;15.430;2023-12-22T00:42:37;95126.88;;;2.99;100.00
61037;BME280;72210;47.076;15.430;2023-12-22T00:45:05;95104.34;;;3.03;100.00
61037;BME280;72210;47.076;15.430;2023-12-22T00:47:32;95121.44;;;3.04;100.00
61037;BME280;72210;47.076;15.430;2023-12-22T00:50:00;95156.22;;;3.10;100.00
61037;BME280;72210;47.076;15.430;2023-12-22T00:52:29;95214.59;;;3.22;100.00
61037;BME280;72210;47.076;15.430;2023-12-22T00:54:56;95226.97;;;3.30;100.00
61037;BME280;72210;47.076;15.430;2023-12-22T00:57:23;95216.28;;;3.36;100.00
61037;BME280;72210;47.076;15.430;2023-12-22T00:59:50;95252.63;;;3.44;100.00
61037;BME280;72210;47.076;15.430;2023-12-22T01:02:18;95270.44;;;3.47;100.00
61037;BME280;72210;47.076;15.430;2023-12-22T01:04:45;95283.59;;;3.55;100.00
61037;BME280;72210;47.076;15.430;2023-12-22T01:07:12;95274.69;;;3.61;100.00
61037;BME280;72210;47.076;15.430;2023-12-22T01:09:42;95275.19;;;3.66;100.00
61037;BME280;72210;47.076;15.430;2023-12-22T01:12:09;95293.84;;;3.70;100.00
61037;BME280;72210;47.076;15.430;2023-12-22T01:14:37;95309.09;;;3.73;100.00
61037;BME280;72210;47.076;15.430;2023-12-22T01:17:05;95318.88;;;3.81;100.00
61037;BME280;72210;47.076;15.430;2023-12-22T01:19:31;95328.88;;;3.85;100.00
61037;BME280;72210;47.076;15.430;2023-12-22T01:21:59;95340.13;;;3.97;100.00
61037;BME280;72210;47.076;15.430;2023-12-22T01:24:26;95317.34;;;4.04;100.00
61037;BME280;72210;47.076;15.430;2023-12-22T01:26:54;95307.59;;;4.09;100.00
61037;BME280;72210;47.076;15.430;2023-12-22T01:29:21;95312.66;;;4.10;100.00
61037;BME280;72210;47.076;15.430;2023-12-22T01:31:48;95302.84;;;4.16;100.00
61037;BME280;72210;47.076;15.430;2023-12-22T01:34:15;95320.38;;;4.10;100.00
61037;BME280;72210;47.076;15.430;2023-12-22T01:36:43;95334.28;;;4.08;100.00
61037;BME280;72210;47.076;15.430;2023-12-22T01:39:10;95330.78;;;4.09;100.00
61037;BME280;72210;47.076;15.430;2023-12-22T01:41:37;95345.81;;;4.15;100.00
61037;BME280;72210;47.076;15.430;2023-12-22T01:44:05;95348.00;;;4.21;100.00
61037;BME280;72210;47.076;15.430;2023-12-22T01:46:33;95355.31;;;4.27;100.00
61037;BME280;72210;47.076;15.430;2023-12-22T01:49:01;95340.38;;;4.32;100.00
61037;BME280;72210;47.076;15.430;2023-12-22T01:51:29;95340.75;;;4.39;100.00
61037;BME280;72210;47.076;15.430;2023-12-22T01:53:56;95346.78;;;4.40;100.00
61037;BME280;72210;47.076;15.430;2023-12-22T01:56:24;95337.69;;;4.34;100.00
61037;BME280;72210;47.076;15.430;2023-12-22T01:58:53;95345.41;;;4.34;100.00
61037;BME280;72210;47.076;15.430;2023-12-22T02:01:24;95362.75;;;4.32;100.00
61037;BME280;72210;47.076;15.430;2023-12-22T02:03:51;95359.31;;;4.31;100.00
61037;BME280;72210;47.076;15.430;2023-12-22T02:06:20;95344.91;;;4.29;100.00
61037;BME280;72210;47.076;15.430;2023-12-22T02:08:47;95341.69;;;4.25;100.00
61037;BME280;72210;47.076;15.430;2023-12-22T02:11:15;95360.25;;;4.18;100.00
61037;BME280;72210;47.076;15.430;2023-12-22T02:13:43;95354.69;;;4.11;100.00
61037;BME280;72210;47.076;15.430;2023-12-22T02:16:17;95380.53;;;3.97;100.00
61037;BME280;72210;47.076;15.430;2023-12-22T02:18:50;95389.56;;;3.89;100.00
61037;BME280;72210;47.076;15.430;2023-12-22T02:21:19;95417.38;;;3.84;100.00
61037;BME280;72210;47.076;15.430;2023-12-22T02:23:48;95447.41;;;3.84;100.00
61037;BME280;72210;47.076;15.430;2023-12-22T02:26:22;95460.94;;;3.87;100.00
61037;BME280;72210;47.076;15.430;2023-12-22T02:28:50;95481.34;;;3.90;100.00
61037;BME280;72210;47.076;15.430;2023-12-22T02:31:25;95471.47;;;3.97;100.00
61037;BME280;72210;47.076;15.430;2023-12-22T02:33:55;95442.25;;;3.98;100.00
61037;BME280;72210;47.076;15.430;2023-12-22T02:36:26;95419.88;;;3.99;100.00
61037;BME280;72210;47.076;15.430;2023-12-22T02:38:57;95415.44;;;4.01;100.00
61037;BME280;72210;47.076;15.430;2023-12-22T02:41:25;95409.28;;;4.03;100.00
61037;BME280;72210;47.076;15.430;2023-12-22T02:43:52;95384.44;;;4.02;100.00
61037;BME280;72210;47.076;15.430;2023-12-22T02:46:20;95388.34;;;3.95;100.00
61037;BME280;72210;47.076;15.430;2023-12-22T02:48:47;95394.00;;;3.87;100.00
61037;BME280;72210;47.076;15.430;2023-12-22T02:51:14;95383.69;;;3.87;100.00
61037;BME280;72210;47.076;15.430;2023-12-22T02:53:41;95386.75;;;3.80;100.00
61037;BME280;72210;47.076;15.430;2023-12-22T02:56:10;95385.19;;;3.77;100.00
61037;BME280;72210;47.076;15.430;2023-12-22T02:58:37;95387.34;;;3.70;100.00
61037;BME280;72210;47.076;15.430;2023-12-22T03:01:04;95395.06;;;3.70;100.00
61037;BME280;72210;47.076;15.430;2023-12-22T03:03:31;95395.06;;;3.70;100.00
61037;BME280;72210;47.076;15.430;2023-12-22T03:05:58;95387.25;;;3.72;100.00
61037;BME280;72210;47.076;15.430;2023-12-22T03:08:25;95387.25;;;3.72;100.00
61037;BME280;72210;47.076;15.430;2023-12-22T03:10:52;95371.91;;;3.70;100.00
61037;BME280;72210;47.076;15.430;2023-12-22T03:13:21;95386.34;;;3.73;100.00
61037;BME280;72210;47.076;15.430;2023-12-22T03:15:48;95398.16;;;3.75;100.00
61037;BME280;72210;47.076;15.430;2023-12-22T03:18:15;95390.66;;;3.72;100.00
61037;BME280;72210;47.076;15.430;2023-12-22T03:20:42;95399.41;;;3.70;100.00
61037;BME280;72210;47.076;15.430;2023-12-22T03:23:10;95394.25;;;3.70;100.00
61037;BME280;72210;47.076;15.430;2023-12-22T03:25:37;95392.41;;;3.72;100.00
61037;BME280;72210;47.076;15.430;2023-12-22T03:28:05;95411.66;;;3.79;100.00
61037;BME280;72210;47.076;15.430;2023-12-22T03:30:34;95405.50;;;3.82;100.00
61037;BME280;72210;47.076;15.430;2023-12-22T03:33:01;95396.03;;;3.82;100.00
61037;BME280;72210;47.076;15.430;2023-12-22T03:35:28;95377.47;;;3.77;100.00
61037;BME280;72210;47.076;15.430;2023-12-22T03:37:55;95376.97;;;3.72;100.00
61037;BME280;72210;47.076;15.430;2023-12-22T03:40:22;95398.47;;;3.71;100.00
61037;BME280;72210;47.076;15.430;2023-12-22T03:42:50;95397.13;;;3.65;100.00
61037;BME280;72210;47.076;15.430;2023-12-22T03:45:17;95404.09;;;3.63;100.00
61037;BME280;72210;47.076;15.430;2023-12-22T03:47:45;95394.94;;;3.59;100.00
61037;BME280;72210;47.076;15.430;2023-12-22T03:50:13;95391.41;;;3.60;100.00
61037;BME280;72210;47.076;15.430;2023-12-22T03:52:40;95437.47;;;3.65;100.00
61037;BME280;72210;47.076;15.430;2023-12-22T03:55:07;95429.56;;;3.68;100.00
61037;BME280;72210;47.076;15.430;2023-12-22T03:57:35;95411.34;;;3.71;100.00
61037;BME280;72210;47.076;15.430;2023-12-22T04:00:02;95422.38;;;3.73;100.00
61037;BME280;72210;47.076;15.430;2023-12-22T04:02:29;95423.91;;;3.75;100.00
61037;BME280;72210;47.076;15.430;2023-12-22T04:04:58;95439.38;;;3.75;100.00
61037;BME280;72210;47.076;15.430;2023-12-22T04:07:25;95451.00;;;3.68;100.00
61037;BME280;72210;47.076;15.430;2023-12-22T04:09:52;95459.38;;;3.57;100.00
61037;BME280;72210;47.076;15.430;2023-12-22T04:12:19;95480.88;;;3.56;100.00
61037;BME280;72210;47.076;15.430;2023-12-22T04:14:47;95485.22;;;3.56;100.00
61037;BME280;72210;47.076;15.430;2023-12-22T04:17:14;95473.34;;;3.53;100.00
61037;BME280;72210;47.076;15.430;2023-12-22T04:19:41;95473.78;;;3.60;100.00
61037;BME280;72210;47.076;15.430;2023-12-22T04:22:10;95482.28;;;3.62;100.00
61037;BME280;72210;47.076;15.430;2023-12-22T04:24:37;95476.28;;;3.62;100.00
61037;BME280;72210;47.076;15.430;2023-12-22T04:27:04;95451.00;;;3.68;100.00
61037;BME280;72210;47.076;15.430;2023-12-22T04:29:31;95469.63;;;3.72;100.00
61037;BME280;72210;47.076;15.430;2023-12-22T04:31:58;95471.41;;;3.71;100.00
61037;BME280;72210;47.076;15.430;2023-12-22T04:34:26;95488.56;;;3.71;100.00
61037;BME280;72210;47.076;15.430;2023-12-22T04:36:53;95476.34;;;3.74;100.00
61037;BME280;72210;47.076;15.430;2023-12-22T04:39:22;95513.03;;;3.78;100.00
61037;BME280;72210;47.076;15.430;2023-12-22T04:41:52;95503.63;;;3.77;100.00
61037;BME280;72210;47.076;15.430;2023-12-22T04:44:20;95482.22;;;3.76;100.00
61037;BME280;72210;47.076;15.430;2023-12-22T04:46:47;95475.41;;;3.75;100.00
61037;BME280;72210;47.076;15.430;2023-12-22T04:49:14;95442.03;;;3.74;100.00
61037;BME280;72210;47.076;15.430;2023-12-22T04:51:42;95450.63;;;3.60;100.00
61037;BME280;72210;47.076;15.430;2023-12-22T04:54:09;95463.63;;;3.44;100.00
61037;BME280;72210;47.076;15.430;2023-12-22T04:56:38;95471.38;;;3.30;100.00
61037;BME280;72210;47.076;15.430;2023-12-22T04:59:05;95434.88;;;3.23;100.00
61037;BME280;72210;47.076;15.430;2023-12-22T05:01:32;95436.00;;;3.19;100.00
61037;BME280;72210;47.076;15.430;2023-12-22T05:03:59;95443.91;;;3.16;100.00
61037;BME280;72210;47.076;15.430;2023-12-22T05:06:27;95422.78;;;3.11;100.00
61037;BME280;72210;47.076;15.430;2023-12-22T05:08:54;95417.00;;;3.07;100.00
61037;BME280;72210;47.076;15.430;2023-12-22T05:11:21;95445.84;;;2.98;100.00
61037;BME280;72210;47.076;15.430;2023-12-22T05:13:51;95449.19;;;3.00;100.00
61037;BME280;72210;47.076;15.430;2023-12-22T05:16:18;95446.19;;;3.06;100.00
61037;BME280;72210;47.076;15.430;2023-12-22T05:18:47;95434.81;;;3.10;100.00
61037;BME280;72210;47.076;15.430;2023-12-22T05:21:14;95434.91;;;3.09;100.00
61037;BME280;72210;47.076;15.430;2023-12-22T05:23:42;95425.25;;;3.12;100.00
61037;BME280;72210;47.076;15.430;2023-12-22T05:26:09;95422.88;;;3.09;100.00
61037;BME280;72210;47.076;15.430;2023-12-22T05:28:36;95392.66;;;3.13;100.00
61037;BME280;72210;47.076;15.430;2023-12-22T05:31:05;95401.38;;;3.10;100.00
61037;BME280;72210;47.076;15.430;2023-12-22T05:33:33;95419.38;;;3.10;100.00
61037;BME280;72210;47.076;15.430;2023-12-22T05:36:00;95418.28;;;3.14;100.00
61037;BME280;72210;47.076;15.430;2023-12-22T05:38:27;95420.97;;;3.13;100.00
61037;BME280;72210;47.076;15.430;2023-12-22T05:40:54;95437.84;;;3.17;100.00
61037;BME280;72210;47.076;15.430;2023-12-22T05:43:21;95430.78;;;3.20;100.00
61037;BME280;72210;47.076;15.430;2023-12-22T05:45:48;95439.94;;;3.24;100.00
61037;BME280;72210;47.076;15.430;2023-12-22T05:48:17;95432.88;;;3.28;100.00
61037;BME280;72210;47.076;15.430;2023-12-22T05:50:45;95439.38;;;3.34;100.00
61037;BME280;72210;47.076;15.430;2023-12-22T05:53:12;95444.44;;;3.35;100.00
61037;BME280;72210;47.076;15.430;2023-12-22T05:55:39;95464.00;;;3.38;100.00
61037;BME280;72210;47.076;15.430;2023-12-22T05:58:06;95471.81;;;3.36;100.00
61037;BME280;72210;47.076;15.430;2023-12-22T06:00:34;95474.84;;;3.43;100.00
61037;BME280;72210;47.076;15.430;2023-12-22T06:03:01;95467.50;;;3.51;100.00
61037;BME280;72210;47.076;15.430;2023-12-22T06:05:30;95465.44;;;3.56;100.00
61037;BME280;72210;47.076;15.430;2023-12-22T06:07:58;95482.38;;;3.61;100.00
61037;BME280;72210;47.076;15.430;2023-12-22T06:10:25;95498.81;;;3.58;100.00
61037;BME280;72210;47.076;15.430;2023-12-22T06:12:52;95477.41;;;3.57;100.00
61037;BME280;72210;47.076;15.430;2023-12-22T06:15:19;95487.03;;;3.54;100.00
61037;BME280;72210;47.076;15.430;2023-12-22T06:17:46;95497.72;;;3.48;100.00
61037;BME280;72210;47.076;15.430;2023-12-22T06:20:14;95488.75;;;3.40;100.00
61037;BME280;72210;47.076;15.430;2023-12-22T06:22:42;95501.78;;;3.37;100.00
61037;BME280;72210;47.076;15.430;2023-12-22T06:25:10;95509.31;;;3.40;100.00
61037;BME280;72210;47.076;15.430;2023-12-22T06:27:37;95494.59;;;3.42;100.00
61037;BME280;72210;47.076;15.430;2023-12-22T06:30:06;95488.66;;;3.42;100.00
61037;BME280;72210;47.076;15.430;2023-12-22T06:32:33;95497.47;;;3.38;100.00
61037;BME280;72210;47.076;15.430;2023-12-22T06:35:01;95511.91;;;3.40;100.00
61037;BME280;72210;47.076;15.430;2023-12-22T06:37:28;95504.28;;;3.39;100.00
61037;BME280;72210;47.076;15.430;2023-12-22T06:39:57;95496.75;;;3.36;100.00
61037;BME280;72210;47.076;15.430;2023-12-22T06:42:25;95501.78;;;3.37;100.00
61037;BME280;72210;47.076;15.430;2023-12-22T06:44:53;95512.81;;;3.39;100.00
61037;BME280;72210;47.076;15.430;2023-12-22T06:47:20;95525.94;;;3.35;100.00
61037;BME280;72210;47.076;15.430;2023-12-22T06:49:48;95517.84;;;3.41;100.00
61037;BME280;72210;47.076;15.430;2023-12-22T06:52:15;95531.53;;;3.41;100.00
61037;BME280;72210;47.076;15.430;2023-12-22T06:54:42;95547.56;;;3.47;100.00
61037;BME280;72210;47.076;15.430;2023-12-22T06:57:11;95527.69;;;3.49;100.00
61037;BME280;72210;47.076;15.430;2023-12-22T06:59:39;95540.72;;;3.60;100.00
61037;BME280;72210;47.076;15.430;2023-12-22T07:02:07;95551.41;;;3.68;100.00
61037;BME280;72210;47.076;15.430;2023-12-22T07:05:03;95557.53;;;3.80;100.00
61037;BME280;72210;47.076;15.430;2023-12-22T07:07:52;95557.53;;;3.80;100.00
61037;BME280;72210;47.076;15.430;2023-12-22T07:10:19;95577.41;;;3.78;100.00
61037;BME280;72210;47.076;15.430;2023-12-22T07:12:49;95590.47;;;3.75;100.00
61037;BME280;72210;47.076;15.430;2023-12-22T07:15:16;95597.75;;;3.68;100.00
61037;BME280;72210;47.076;15.430;2023-12-22T07:17:44;95587.44;;;3.68;100.00
61037;BME280;72210;47.076;15.430;2023-12-22T07:20:11;95570.88;;;3.72;100.00
61037;BME280;72210;47.076;15.430;2023-12-22T07:22:38;95566.25;;;3.77;100.00
61037;BME280;72210;47.076;15.430;2023-12-22T07:25:06;95566.81;;;3.83;100.00
61037;BME280;72210;47.076;15.430;2023-12-22T07:27:34;95555.75;;;3.81;100.00
61037;BME280;72210;47.076;15.430;2023-12-22T07:30:03;95564.25;;;3.83;100.00
61037;BME280;72210;47.076;15.430;2023-12-22T07:32:33;95541.88;;;3.83;100.00
61037;BME280;72210;47.076;15.430;2023-12-22T07:35:00;95552.09;;;3.85;100.00
61037;BME280;72210;47.076;15.430;2023-12-22T07:37:27;95560.63;;;3.85;100.00
61037;BME280;72210;47.076;15.430;2023-12-22T07:39:54;95563.88;;;3.89;100.00
61037;BME280;72210;47.076;15.430;2023-12-22T07:42:24;95552.81;;;3.87;100.00
61037;BME280;72210;47.076;15.430;2023-12-22T07:44:51;95567.16;;;3.91;100.00
61037;BME280;72210;47.076;15.430;2023-12-22T07:47:19;95566.25;;;3.92;100.00
61037;BME280;72210;47.076;15.430;2023-12-22T07:49:46;95566.50;;;4.02;100.00
61037;BME280;72210;47.076;15.430;2023-12-22T07:52:14;95560.16;;;4.07;100.00
61037;BME280;72210;47.076;15.430;2023-12-22T07:54:41;95554.16;;;4.07;100.00
61037;BME280;72210;47.076;15.430;2023-12-22T07:57:08;95545.59;;;4.06;100.00
61037;BME280;72210;47.076;15.430;2023-12-22T07:59:35;95562.81;;;4.06;100.00
61037;BME280;72210;47.076;15.430;2023-12-22T08:02:03;95538.06;;;4.03;100.00
61037;BME280;72210;47.076;15.430;2023-12-22T08:04:31;95568.06;;;4.04;100.00
61037;BME280;72210;47.076;15.430;2023-12-22T08:06:59;95563.91;;;4.02;100.00
61037;BME280;72210;47.076;15.430;2023-12-22T08:09:26;95582.69;;;4.04;100.00
61037;BME280;72210;47.076;15.430;2023-12-22T08:11:53;95596.94;;;4.09;100.00
61037;BME280;72210;47.076;15.430;2023-12-22T08:14:20;95600.03;;;4.14;100.00
61037;BME280;72210;47.076;15.430;2023-12-22T08:16:47;95587.06;;;4.16;100.00
61037;BME280;72210;47.076;15.430;2023-12-22T08:19:16;95589.84;;;4.13;100.00
61037;BME280;72210;47.076;15.430;2023-12-22T08:21:44;95589.84;;;4.13;100.00
61037;BME280;72210;47.076;15.430;2023-12-22T08:24:15;95599.22;;;4.14;100.00
61037;BME280;72210;47.076;15.430;2023-12-22T08:26:49;95590.59;;;4.15;100.00
61037;BME280;72210;47.076;15.430;2023-12-22T08:29:16;95618.53;;;4.21;100.00
61037;BME280;72210;47.076;15.430;2023-12-22T08:31:44;95636.69;;;4.20;100.00
61037;BME280;72210;47.076;15.430;2023-12-22T08:34:11;95599.03;;;4.17;100.00
61037;BME280;72210;47.076;15.430;2023-12-22T08:36:38;95587.16;;;4.14;100.00
61037;BME280;72210;47.076;15.430;2023-12-22T08:39:07;95603.66;;;3.98;100.00
61037;BME280;72210;47.076;15.430;2023-12-22T08:41:35;95641.38;;;3.99;100.00
61037;BME280;72210;47.076;15.430;2023-12-22T08:44:03;95654.91;;;4.17;100.00
61037;BME280;72210;47.076;15.430;2023-12-22T08:46:32;95647.72;;;4.22;100.00
61037;BME280;72210;47.076;15.430;2023-12-22T08:48:59;95637.50;;;4.20;100.00
61037;BME280;72210;47.076;15.430;2023-12-22T08:51:27;95639.16;;;4.21;100.00
61037;BME280;72210;47.076;15.430;2023-12-22T08:53:54;95631.44;;;4.21;100.00
61037;BME280;72210;47.076;15.430;2023-12-22T08:56:24;95633.06;;;4.22;100.00
61037;BME280;72210;47.076;15.430;2023-12-22T08:58:52;95630.88;;;4.16;100.00
61037;BME280;72210;47.076;15.430;2023-12-22T09:01:20;95634.94;;;4.06;100.00
61037;BME280;72210;47.076;15.430;2023-12-22T09:03:48;95632.00;;;3.98;100.00
61037;BME280;72210;47.076;15.430;2023-12-22T09:06:16;95635.03;;;3.90;100.00
61037;BME280;72210;47.076;15.430;2023-12-22T09:08:44;95645.06;;;3.94;100.00
61037;BME280;72210;47.076;15.430;2023-12-22T09:11:12;95628.16;;;3.90;100.00
61037;BME280;72210;47.076;15.430;2023-12-22T09:13:40;95616.91;;;3.91;100.00
61037;BME280;72210;47.076;15.430;2023-12-22T09:16:08;95624.53;;;3.93;100.00
61037;BME280;72210;47.076;15.430;2023-12-22T09:18:36;95638.28;;;3.93;100.00
61037;BME280;72210;47.076;15.430;2023-12-22T09:21:03;95643.81;;;3.87;100.00
61037;BME280;72210;47.076;15.430;2023-12-22T09:23:30;95656.09;;;3.82;100.00
61037;BME280;72210;47.076;15.430;2023-12-22T09:25:57;95663.09;;;3.80;100.00
61037;BME280;72210;47.076;15.430;2023-12-22T09:28:24;95641.88;;;3.76;100.00
61037;BME280;72210;47.076;15.430;2023-12-22T09:30:53;95617.47;;;3.82;100.00
61037;BME280;72210;47.076;15.430;2023-12-22T09:33:21;95601.47;;;3.91;100.00
61037;BME280;72210;47.076;15.430;2023-12-22T09:35:48;95615.44;;;4.02;100.00
61037;BME280;72210;47.076;15.430;2023-12-22T09:38:16;95658.31;;;4.03;100.00
61037;BME280;72210;47.076;15.430;2023-12-22T09:40:43;95658.13;;;3.91;100.00
61037;BME280;72210;47.076;15.430;2023-12-22T09:43:14;95650.41;;;3.91;100.00
61037;BME280;72210;47.076;15.430;2023-12-22T09:45:41;95652.06;;;3.92;100.00
61037;BME280;72210;47.076;15.430;2023-12-22T09:48:10;95674.34;;;3.93;100.00
61037;BME280;72210;47.076;15.430;2023-12-22T09:50:39;95667.16;;;3.99;100.00
61037;BME280;72210;47.076;15.430;2023-12-22T09:53:09;95645.34;;;4.04;100.00
61037;BME280;72210;47.076;15.430;2023-12-22T09:55:36;95667.41;;;4.08;100.00
61037;BME280;72210;47.076;15.430;2023-12-22T09:58:04;95669.81;;;3.97;100.00
61037;BME280;72210;47.076;15.430;2023-12-22T10:00:33;95664.56;;;3.99;100.00
61037;BME280;72210;47.076;15.430;2023-12-22T10:03:02;95620.16;;;3.95;100.00
61037;BME280;72210;47.076;15.430;2023-12-22T10:05:33;95641.84;;;3.91;100.00
61037;BME280;72210;47.076;15.430;2023-12-22T10:08:02;95689.97;;;3.90;100.00
61037;BME280;72210;47.076;15.430;2023-12-22T10:10:30;95684.72;;;3.92;100.00
61037;BME280;72210;47.076;15.430;2023-12-22T10:12:58;95679.66;;;4.05;100.00
61037;BME280;72210;47.076;15.430;2023-12-22T10:15:26;95698.88;;;4.13;100.00
61037;BME280;72210;47.076;15.430;2023-12-22T10:17:54;95710.75;;;4.16;100.00
61037;BME280;72210;47.076;15.430;2023-12-22T10:20:21;95721.03;;;4.16;100.00
61037;BME280;72210;47.076;15.430;2023-12-22T10:22:50;95739.09;;;4.16;100.00
61037;BME280;72210;47.076;15.430;2023-12-22T10:25:20;95772.75;;;4.13;100.00
61037;BME280;72210;47.076;15.430;2023-12-22T10:27:47;95712.31;;;4.19;100.00
61037;BME280;72210;47.076;15.430;2023-12-22T10:30:15;95651.00;;;4.24;100.00
61037;BME280;72210;47.076;15.430;2023-12-22T10:32:43;95718.09;;;4.22;100.00
61037;BME280;72210;47.076;15.430;2023-12-22T10:35:10;95666.66;;;4.21;100.00
61037;BME280;72210;47.076;15.430;2023-12-22T10:37:38;95677.63;;;4.24;100.00
61037;BME280;72210;47.076;15.430;2023-12-22T10:40:08;95683.59;;;4.25;100.00
61037;BME280;72210;47.076;15.430;2023-12-22T10:42:36;95642.38;;;4.25;100.00
61037;BME280;72210;47.076;15.430;2023-12-22T10:45:03;95628.75;;;4.23;100.00
61037;BME280;72210;47.076;15.430;2023-12-22T10:47:31;95620.34;;;4.34;100.00
61037;BME280;72210;47.076;15.430;2023-12-22T10:50:01;95591.03;;;4.49;100.00
61037;BME280;72210;47.076;15.430;2023-12-22T10:52:29;95624.41;;;4.65;100.00
61037;BME280;72210;47.076;15.430;2023-12-22T10:54:57;95623.91;;;4.73;100.00
61037;BME280;72210;47.076;15.430;2023-12-22T10:57:27;95616.78;;;4.76;100.00
61037;BME280;72210;47.076;15.430;2023-12-22T10:59:57;95614.63;;;4.83;100.00
61037;BME280;72210;47.076;15.430;2023-12-22T11:02:28;95581.34;;;4.93;100.00
61037;BME280;72210;47.076;15.430;2023-12-22T11:05:02;95587.22;;;5.08;100.00
61037;BME280;72210;47.076;15.430;2023-12-22T11:07:30;95581.56;;;5.15;100.00
61037;BME280;72210;47.076;15.430;2023-12-22T11:10:02;95583.53;;;5.25;100.00
61037;BME280;72210;47.076;15.430;2023-12-22T11:12:35;95574.25;;;5.35;100.00
61037;BME280;72210;47.076;15.430;2023-12-22T11:15:05;95555.88;;;5.39;100.00
61037;BME280;72210;47.076;15.430;2023-12-22T11:17:33;95549.75;;;5.40;100.00
61037;BME280;72210;47.076;15.430;2023-12-22T11:20:01;95549.66;;;5.42;100.00
61037;BME280;72210;47.076;15.430;2023-12-22T11:22:31;95538.50;;;5.42;100.00
61037;BME280;72210;47.076;15.430;2023-12-22T11:25:00;95540.59;;;5.36;100.00
61037;BME280;72210;47.076;15.430;2023-12-22T11:27:29;95546.88;;;5.32;100.00
61037;BME280;72210;47.076;15.430;2023-12-22T11:30:02;95539.66;;;5.25;100.00
61037;BME280;72210;47.076;15.430;2023-12-22T11:32:33;95545.63;;;5.12;100.00
61037;BME280;72210;47.076;15.430;2023-12-22T11:35:01;95563.00;;;5.10;100.00
61037;BME280;72210;47.076;15.430;2023-12-22T11:37:31;95578.25;;;5.13;100.00
61037;BME280;72210;47.076;15.430;2023-12-22T11:39:58;95589.81;;;5.08;100.00
61037;BME280;72210;47.076;15.430;2023-12-22T11:42:29;95599.72;;;5.01;100.00
61037;BME280;72210;47.076;15.430;2023-12-22T11:44:57;95620.66;;;4.96;100.00
61037;BME280;72210;47.076;15.430;2023-12-22T11:47:29;95615.38;;;4.85;100.00
61037;BME280;72210;47.076;15.430;2023-12-22T11:49:56;95606.28;;;4.79;100.00
61037;BME280;72210;47.076;15.430;2023-12-22T11:52:25;95594.28;;;4.78;100.00
61037;BME280;72210;47.076;15.430;2023-12-22T11:54:55;95567.59;;;4.79;100.00
61037;BME280;72210;47.076;15.430;2023-12-22T11:57:38;95572.66;;;4.81;100.00
61037;BME280;72210;47.076;15.430;2023-12-22T12:00:48;95550.44;;;4.78;100.00
61037;BME280;72210;47.076;15.430;2023-12-22T12:03:19;95559.28;;;4.61;100.00
61037;BME280;72210;47.076;15.430;2023-12-22T12:05:46;95524.66;;;4.25;100.00
61037;BME280;72210;47.076;15.430;2023-12-22T12:08:14;95527.97;;;4.00;100.00
61037;BME280;72210;47.076;15.430;2023-12-22T12:10:51;95551.28;;;3.84;100.00
61037;BME280;72210;47.076;15.430;2023-12-22T12:13:22;95534.44;;;3.78;100.00
61037;BME280;72210;47.076;15.430;2023-12-22T12:15:52;95534.81;;;3.72;100.00
61037;BME280;72210;47.076;15.430;2023-12-22T12:18:22;95530.63;;;3.71;100.00
61037;BME280;72210;47.076;15.430;2023-12-22T12:20:49;95534.91;;;3.71;100.00
61037;BME280;72210;47.076;15.430;2023-12-22T12:23:16;95535.00;;;3.69;100.00
61037;BME280;72210;47.076;15.430;2023-12-22T12:25:44;95544.22;;;3.73;100.00
61037;BME280;72210;47.076;15.430;2023-12-22T12:28:11;95530.63;;;3.71;100.00
61037;BME280;72210;47.076;15.430;2023-12-22T12:30:43;95542.63;;;3.71;100.00
61037;BME280;72210;47.076;15.430;2023-12-22T12:33:15;95549.44;;;3.72;100.00
61037;BME280;72210;47.076;15.430;2023-12-22T12:35:44;95558.94;;;3.71;100.00
61037;BME280;72210;47.076;15.430;2023-12-22T12:38:21;95580.72;;;3.66;100.00
61037;BME280;72210;47.076;15.430;2023-12-22T12:40:53;95583.66;;;3.59;100.00
61037;BME280;72210;47.076;15.430;2023-12-22T12:43:24;95579.16;;;3.63;100.00
61037;BME280;72210;47.076;15.430;2023-12-22T12:45:52;95554.88;;;3.67;100.00
61037;BME280;72210;47.076;15.430;2023-12-22T12:48:21;95549.16;;;3.76;100.00
61037;BME280;72210;47.076;15.430;2023-12-22T12:50:49;95548.50;;;3.87;100.00
61037;BME280;72210;47.076;15.430;2023-12-22T12:53:16;95554.81;;;3.96;100.00
61037;BME280;72210;47.076;15.430;2023-12-22T12:55:43;95558.78;;;4.02;100.00